Time;durP1;ratioP1;P1;durP2;ratioP2;P2;SDS_P1;SDS_P2;PMS_P1;PMS_P2;Temp;Humidity;BMP_temperature;BMP_pressure;BME280_temperature;BME280_humidity;BME280_pressure;Samples;Min_cycle;Max_cycle;Signal;HPM_P1;HPM_P2
2021/06/07 00:00:52;;;;;;;14.63;10.95;;;18.50;82.00;;;;;;3551597;40;20030;-68
2021/06/07 00:03:17;;;;;;;13.27;11.75;;;18.50;82.20;;;;;;3550735;40;20030;-67
2021/06/07 00:05:43;;;;;;;14.52;11.27;;;18.40;82.20;;;;;;3551333;40;20410;-68
2021/06/07 00:08:09;;;;;;;15.82;11.77;;;18.40;81.80;;;;;;3552957;40;20057;-67
2021/06/07 00:10:36;;;;;;;14.65;10.95;;;18.30;81.90;;;;;;3554168;40;20033;-67
2021/06/07 00:13:04;;;;;;;15.10;11.13;;;18.20;82.00;;;;;;3555103;40;20036;-67
2021/06/07 00:15:30;;;;;;;13.88;10.65;;;18.10;81.90;;;;;;3556971;40;20033;-67
2021/06/07 00:17:56;;;;;;;13.65;10.18;;;18.10;81.70;;;;;;3558295;40;20037;-67
2021/06/07 00:20:32;;;;;;;11.93;9.43;;;18.00;81.50;;;;;;3559694;40;20407;-67
2021/06/07 00:22:58;;;;;;;11.50;9.60;;;18.00;81.10;;;;;;3549799;40;20038;-68
2021/06/07 00:25:24;;;;;;;10.90;8.80;;;18.00;80.20;;;;;;3552381;40;20054;-67
2021/06/07 00:27:49;;;;;;;10.27;8.23;;;17.90;79.70;;;;;;3553251;40;20737;-67
2021/06/07 00:30:15;;;;;;;8.77;7.88;;;17.80;79.00;;;;;;3554381;40;20034;-67
2021/06/07 00:32:41;;;;;;;8.38;7.03;;;17.80;78.40;;;;;;3556074;40;20045;-67
2021/06/07 00:35:07;;;;;;;10.68;7.45;;;17.70;77.80;;;;;;3555686;40;20053;-68
2021/06/07 00:37:33;;;;;;;8.30;6.68;;;17.70;77.80;;;;;;3558504;40;20038;-68
2021/06/07 00:39:59;;;;;;;7.93;6.28;;;17.60;77.00;;;;;;3559582;40;20033;-67
2021/06/07 00:42:24;;;;;;;7.03;5.72;;;17.60;76.00;;;;;;3559308;40;20021;-68
2021/06/07 00:44:50;;;;;;;7.03;6.30;;;17.50;76.20;;;;;;3557891;40;20036;-67
2021/06/07 00:47:19;;;;;;;7.93;6.82;;;17.50;76.60;;;;;;3563406;40;20112;-67
2021/06/07 00:49:45;;;;;;;8.63;6.05;;;17.40;76.90;;;;;;3555193;40;20026;-68
2021/06/07 00:52:11;;;;;;;7.28;6.40;;;17.40;76.80;;;;;;3553117;40;20408;-68
2021/06/07 00:54:37;;;;;;;7.22;5.50;;;17.30;76.90;;;;;;3552012;40;20045;-67
2021/06/07 00:57:03;;;;;;;6.25;5.60;;;17.30;76.00;;;;;;3550432;40;20037;-68
2021/06/07 00:59:29;;;;;;;6.28;5.13;;;17.30;76.10;;;;;;3550127;40;20064;-67
2021/06/07 01:01:55;;;;;;;5.63;5.13;;;17.30;75.30;;;;;;3551666;40;20800;-67
2021/06/07 01:04:20;;;;;;;7.10;5.20;;;17.20;74.50;;;;;;3552338;40;20077;-68
2021/06/07 01:06:46;;;;;;;6.22;4.85;;;17.20;74.30;;;;;;3561393;40;20312;-67
2021/06/07 01:09:12;;;;;;;5.97;5.25;;;17.20;73.90;;;;;;3555607;40;20077;-67
2021/06/07 01:11:38;;;;;;;7.70;5.28;;;17.20;74.00;;;;;;3563142;40;20115;-67
2021/06/07 01:14:04;;;;;;;5.43;4.93;;;17.20;73.60;;;;;;3554319;40;20022;-67
2021/06/07 01:16:30;;;;;;;8.13;5.20;;;17.10;73.30;;;;;;3549868;40;20308;-67
2021/06/07 01:18:56;;;;;;;5.75;4.97;;;17.10;73.30;;;;;;3550919;40;20033;-67
2021/06/07 01:21:24;;;;;;;8.00;5.10;;;17.00;73.40;;;;;;3556741;40;20037;-68
2021/06/07 01:23:52;;;;;;;5.90;4.90;;;17.00;73.60;;;;;;3555529;40;20100;-67
2021/06/07 01:26:20;;;;;;;8.13;4.70;;;16.90;73.40;;;;;;3555761;40;20033;-67
2021/06/07 01:28:47;;;;;;;5.40;4.60;;;16.90;73.50;;;;;;3555267;40;20045;-67
2021/06/07 01:31:14;;;;;;;7.28;4.80;;;16.90;73.40;;;;;;3560252;40;20079;-67
2021/06/07 01:33:43;;;;;;;8.18;4.80;;;16.90;73.40;;;;;;3552360;40;20046;-67
2021/06/07 01:36:09;;;;;;;5.18;4.68;;;16.80;73.20;;;;;;3558655;40;20038;-68
2021/06/07 01:38:35;;;;;;;5.85;4.90;;;16.80;73.20;;;;;;3552665;40;20343;-67
2021/06/07 01:41:04;;;;;;;5.38;4.50;;;16.80;73.70;;;;;;3552719;40;20038;-67
2021/06/07 01:43:31;;;;;;;5.97;4.30;;;16.70;72.90;;;;;;3555746;40;20073;-68
2021/06/07 01:45:58;;;;;;;6.30;4.60;;;16.70;72.50;;;;;;3554972;40;20097;-68
2021/06/07 01:48:24;;;;;;;4.60;4.15;;;16.60;72.40;;;;;;3553033;40;20761;-67
2021/06/07 01:50:52;;;;;;;9.02;4.95;;;16.60;72.80;;;;;;3542559;40;20033;-67
2021/06/07 01:53:20;;;;;;;6.20;4.18;;;16.60;73.00;;;;;;3551309;40;20116;-67
2021/06/07 01:55:49;;;;;;;6.10;4.43;;;16.60;72.30;;;;;;3553864;40;20041;-67
2021/06/07 01:58:17;;;;;;;5.38;3.80;;;16.50;71.80;;;;;;3558818;40;20354;-67
2021/06/07 02:00:51;;;;;;;6.32;4.07;;;16.50;71.80;;;;;;3556609;40;20034;-67
2021/06/07 02:03:19;;;;;;;6.20;4.82;;;16.50;71.20;;;;;;3555921;40;20036;-67
2021/06/07 02:05:48;;;;;;;4.93;3.72;;;16.50;70.20;;;;;;3554099;40;20034;-68
2021/06/07 02:08:16;;;;;;;6.28;3.97;;;16.40;70.90;;;;;;3560044;40;20060;-67
2021/06/07 02:10:45;;;;;;;4.43;3.78;;;16.30;71.30;;;;;;3551702;40;20038;-68
2021/06/07 02:13:13;;;;;;;4.22;3.83;;;16.30;71.50;;;;;;3551006;40;20030;-67
2021/06/07 02:15:39;;;;;;;4.10;3.70;;;16.20;72.10;;;;;;3566241;40;20088;-67
2021/06/07 02:18:07;;;;;;;5.82;4.13;;;16.20;72.00;;;;;;3556043;40;20123;-68
2021/06/07 02:20:34;;;;;;;4.47;3.78;;;16.10;72.80;;;;;;3555446;40;20040;-67
2021/06/07 02:23:00;;;;;;;6.07;4.35;;;16.00;73.30;;;;;;3555975;40;20038;-67
2021/06/07 02:25:26;;;;;;;4.43;3.65;;;16.00;73.90;;;;;;3557726;40;20397;-67
2021/06/07 02:27:53;;;;;;;4.45;4.03;;;16.00;73.60;;;;;;3559449;40;20073;-67
2021/06/07 02:30:25;;;;;;;4.65;3.97;;;16.00;73.50;;;;;;3551876;40;20026;-66
2021/06/07 02:32:54;;;;;;;10.07;4.07;;;16.00;73.10;;;;;;3556492;40;20021;-67
2021/06/07 02:35:21;;;;;;;4.45;3.72;;;16.00;72.60;;;;;;3558342;40;20029;-66
2021/06/07 02:37:50;;;;;;;5.85;4.30;;;15.90;72.50;;;;;;3557250;40;20025;-66
2021/06/07 02:40:20;;;;;;;4.75;4.25;;;15.90;72.80;;;;;;3555803;40;20034;-66
2021/06/07 02:42:47;;;;;;;6.65;3.83;;;15.80;73.20;;;;;;3554256;40;20048;-67
2021/06/07 02:45:16;;;;;;;4.00;3.60;;;15.80;74.40;;;;;;3553430;40;20118;-65
2021/06/07 02:47:44;;;;;;;5.43;4.28;;;15.70;74.30;;;;;;3553693;40;20289;-67
2021/06/07 02:50:13;;;;;;;6.80;4.13;;;15.70;74.40;;;;;;3564991;40;20085;-67
2021/06/07 02:52:47;;;;;;;4.95;4.10;;;15.70;73.90;;;;;;3557714;40;20483;-67
2021/06/07 02:55:21;;;;;;;7.32;4.00;;;15.80;74.00;;;;;;3553682;40;20064;-67
2021/06/07 02:57:49;;;;;;;6.65;4.30;;;15.70;74.20;;;;;;3554927;40;20040;-66
2021/06/07 03:00:19;;;;;;;9.05;4.50;;;15.70;74.60;;;;;;3556119;40;20041;-66
2021/06/07 03:02:45;;;;;;;4.78;4.18;;;15.70;74.70;;;;;;3556876;40;20559;-66
2021/06/07 03:05:11;;;;;;;5.80;4.80;;;15.70;74.40;;;;;;3557142;40;20029;-67
2021/06/07 03:07:37;;;;;;;5.00;3.95;;;15.70;73.70;;;;;;3553754;40;20152;-67
2021/06/07 03:10:07;;;;;;;4.88;4.00;;;15.70;74.10;;;;;;3552926;40;20453;-66
2021/06/07 03:12:34;;;;;;;5.13;4.00;;;15.70;73.80;;;;;;3558126;40;20756;-67
2021/06/07 03:15:00;;;;;;;6.35;3.90;;;15.60;73.80;;;;;;3554566;40;20026;-67
2021/06/07 03:17:26;;;;;;;4.93;3.92;;;15.60;74.30;;;;;;3555270;40;20066;-68
2021/06/07 03:19:52;;;;;;;5.43;3.85;;;15.60;74.40;;;;;;3555287;40;20059;-67
2021/06/07 03:22:21;;;;;;;5.10;4.10;;;15.60;75.00;;;;;;3558522;40;20116;-67
2021/06/07 03:24:48;;;;;;;5.15;4.15;;;15.60;75.10;;;;;;3554737;40;20072;-67
2021/06/07 03:27:14;;;;;;;6.15;4.53;;;15.50;75.10;;;;;;3553260;40;20037;-66
2021/06/07 03:29:39;;;;;;;5.18;4.38;;;15.50;75.20;;;;;;3558837;40;20077;-67
2021/06/07 03:32:06;;;;;;;7.28;4.95;;;15.50;75.30;;;;;;3557079;40;20042;-67
2021/06/07 03:34:31;;;;;;;6.25;4.93;;;15.50;75.10;;;;;;3556182;40;20044;-66
2021/06/07 03:36:57;;;;;;;5.95;4.65;;;15.40;75.50;;;;;;3554580;40;20038;-67
2021/06/07 03:39:23;;;;;;;4.43;3.92;;;15.40;75.80;;;;;;3553303;40;20034;-67
2021/06/07 03:41:48;;;;;;;7.72;4.25;;;15.40;75.80;;;;;;3552026;40;20044;-67
2021/06/07 03:44:14;;;;;;;4.88;4.10;;;15.40;75.60;;;;;;3551244;40;20403;-68
2021/06/07 03:46:40;;;;;;;4.97;4.05;;;15.50;75.70;;;;;;3556398;40;20038;-67
2021/06/07 03:49:05;;;;;;;4.93;4.00;;;15.40;75.80;;;;;;3555712;40;20059;-67
2021/06/07 03:51:33;;;;;;;4.82;4.15;;;15.40;76.00;;;;;;3556349;40;20029;-66
2021/06/07 03:53:59;;;;;;;5.10;3.90;;;15.40;75.70;;;;;;3555006;40;20074;-66
2021/06/07 03:56:25;;;;;;;5.32;4.10;;;15.50;75.30;;;;;;3560726;40;20756;-67
2021/06/07 03:58:50;;;;;;;6.00;3.63;;;15.50;75.30;;;;;;3552570;40;20037;-67
2021/06/07 04:01:16;;;;;;;4.50;3.95;;;15.50;74.50;;;;;;3550641;40;20385;-67
2021/06/07 04:03:42;;;;;;;5.20;4.00;;;15.50;74.30;;;;;;3551599;40;20022;-67
2021/06/07 04:06:08;;;;;;;8.10;3.80;;;15.50;73.90;;;;;;3561508;40;20033;-67
2021/06/07 04:08:33;;;;;;;3.97;3.58;;;15.50;74.40;;;;;;3557041;40;20466;-66
2021/06/07 04:10:59;;;;;;;4.70;3.13;;;15.50;74.80;;;;;;3554339;40;20131;-67
2021/06/07 04:13:25;;;;;;;4.13;3.38;;;15.50;75.20;;;;;;3554829;40;20736;-67
2021/06/07 04:15:50;;;;;;;4.97;3.65;;;15.60;75.20;;;;;;3557006;40;20440;-67
2021/06/07 04:18:16;;;;;;;5.93;3.47;;;15.60;75.10;;;;;;3556756;40;20048;-67
2021/06/07 04:20:42;;;;;;;5.88;3.72;;;15.60;75.10;;;;;;3559732;40;20037;-67
2021/06/07 04:23:08;;;;;;;4.43;4.03;;;15.60;75.10;;;;;;3559110;40;20026;-67
2021/06/07 04:25:35;;;;;;;7.30;3.95;;;15.70;75.60;;;;;;3555366;40;20375;-69
2021/06/07 04:28:01;;;;;;;5.00;3.85;;;15.70;75.50;;;;;;3551371;40;20408;-67
2021/06/07 04:30:28;;;;;;;4.35;3.95;;;15.80;75.40;;;;;;3555086;40;20037;-67
2021/06/07 04:32:55;;;;;;;5.95;4.05;;;15.80;75.30;;;;;;3553588;40;20038;-67
2021/06/07 04:35:22;;;;;;;4.70;3.92;;;15.90;75.30;;;;;;3554335;40;20091;-67
2021/06/07 04:37:53;;;;;;;3.78;3.42;;;15.90;74.70;;;;;;3556112;40;20135;-67
2021/06/07 04:40:22;;;;;;;6.00;3.97;;;15.90;74.00;;;;;;3550689;40;20088;-69
2021/06/07 04:42:49;;;;;;;5.10;3.78;;;16.00;74.20;;;;;;3552190;40;20092;-66
2021/06/07 04:45:16;;;;;;;7.13;4.22;;;16.10;74.40;;;;;;3553298;40;20381;-68
2021/06/07 04:47:42;;;;;;;4.90;3.63;;;16.10;74.30;;;;;;3552984;40;20048;-71
2021/06/07 04:50:09;;;;;;;6.30;3.53;;;16.10;73.50;;;;;;3555210;40;20431;-70
2021/06/07 04:52:57;;;;;;;5.50;3.63;;;16.20;73.60;;;;;;3553741;40;20139;-67
2021/06/07 04:55:30;;;;;;;3.67;3.25;;;16.20;73.70;;;;;;3552327;40;20127;-68
2021/06/07 04:57:57;;;;;;;3.78;3.47;;;16.30;73.20;;;;;;3562756;40;20855;-68
2021/06/07 05:00:24;;;;;;;3.67;3.13;;;16.40;73.20;;;;;;3549485;40;20053;-68
2021/06/07 05:02:51;;;;;;;4.00;3.20;;;16.50;73.00;;;;;;3553953;40;20030;-68
2021/06/07 05:05:18;;;;;;;9.88;3.65;;;16.50;72.90;;;;;;3562284;40;20077;-68
2021/06/07 05:07:43;;;;;;;7.10;3.60;;;16.60;72.70;;;;;;3556320;40;20432;-68
2021/06/07 05:10:10;;;;;;;15.68;3.55;;;16.60;72.20;;;;;;3554692;40;20030;-68
2021/06/07 05:12:36;;;;;;;3.80;3.45;;;16.70;71.60;;;;;;3553531;40;20050;-68
2021/06/07 05:15:02;;;;;;;4.13;3.25;;;16.80;71.30;;;;;;3552861;40;20297;-68
2021/06/07 05:17:27;;;;;;;5.18;3.10;;;16.90;71.20;;;;;;3551045;40;20033;-68
2021/06/07 05:19:53;;;;;;;4.65;3.20;;;17.10;70.00;;;;;;3556579;40;20359;-68
2021/06/07 05:22:19;;;;;;;3.58;3.03;;;17.40;69.80;;;;;;3554836;40;20041;-68
2021/06/07 05:24:46;;;;;;;3.95;2.88;;;17.60;69.30;;;;;;3557242;40;20876;-68
2021/06/07 05:27:11;;;;;;;3.72;3.08;;;17.70;68.70;;;;;;3555470;40;20048;-67
2021/06/07 05:29:37;;;;;;;4.68;3.30;;;17.90;67.70;;;;;;3555393;40;20348;-67
2021/06/07 05:32:03;;;;;;;3.95;2.92;;;17.90;68.10;;;;;;3559369;40;20147;-72
2021/06/07 05:34:29;;;;;;;6.22;3.20;;;18.00;67.30;;;;;;3552256;40;20030;-65
2021/06/07 05:36:54;;;;;;;3.42;2.83;;;18.00;65.20;;;;;;3538285;40;20049;-67
2021/06/07 05:39:20;;;;;;;6.35;3.17;;;18.00;65.70;;;;;;3557084;40;20033;-68
2021/06/07 05:41:47;;;;;;;4.43;2.95;;;18.10;66.10;;;;;;3564618;40;20025;-66
2021/06/07 05:44:13;;;;;;;3.92;2.95;;;18.20;65.90;;;;;;3556527;40;20041;-67
2021/06/07 05:46:39;;;;;;;3.17;2.75;;;18.30;66.10;;;;;;3556640;40;20395;-67
2021/06/07 05:49:05;;;;;;;6.25;2.72;;;18.40;65.40;;;;;;3554052;40;20398;-66
2021/06/07 05:51:31;;;;;;;9.07;2.80;;;18.50;63.40;;;;;;3554890;40;20034;-67
2021/06/07 05:53:57;;;;;;;4.90;2.83;;;18.50;64.40;;;;;;3552931;40;20025;-67
2021/06/07 05:56:23;;;;;;;3.47;2.90;;;18.60;63.80;;;;;;3560714;40;20029;-67
2021/06/07 05:58:49;;;;;;;5.88;2.80;;;18.70;62.20;;;;;;3556693;40;20067;-66
2021/06/07 06:01:15;;;;;;;5.30;2.85;;;18.80;62.60;;;;;;3555690;40;20037;-66
2021/06/07 06:03:41;;;;;;;7.03;3.20;;;18.90;63.30;;;;;;3557078;40;20029;-67
2021/06/07 06:06:07;;;;;;;3.35;2.92;;;19.10;60.90;;;;;;3561492;40;20116;-67
2021/06/07 06:08:32;;;;;;;7.43;3.63;;;19.20;61.30;;;;;;3560237;40;20475;-67
2021/06/07 06:10:58;;;;;;;2.75;2.55;;;19.40;59.00;;;;;;3554377;40;20081;-66
2021/06/07 06:13:24;;;;;;;3.75;2.42;;;19.60;58.50;;;;;;3553228;40;20408;-66
2021/06/07 06:15:49;;;;;;;3.28;2.97;;;19.80;58.90;;;;;;3562830;40;20045;-66
2021/06/07 06:18:15;;;;;;;3.15;2.63;;;19.90;58.20;;;;;;3556595;40;20022;-67
2021/06/07 06:20:41;;;;;;;2.67;2.47;;;19.90;57.90;;;;;;3555152;40;20049;-66
2021/06/07 06:23:07;;;;;;;3.92;2.40;;;19.90;58.50;;;;;;3561931;40;20061;-67
2021/06/07 06:25:33;;;;;;;3.13;2.30;;;20.00;57.70;;;;;;3548512;40;20128;-67
2021/06/07 06:27:59;;;;;;;3.25;2.30;;;20.10;57.50;;;;;;3542368;40;20044;-66
2021/06/07 06:30:27;;;;;;;4.07;2.30;;;20.20;57.50;;;;;;3540676;40;20156;-67
2021/06/07 06:32:57;;;;;;;3.42;2.47;;;20.30;57.50;;;;;;3545873;40;20519;-68
2021/06/07 06:35:23;;;;;;;3.40;2.35;;;20.40;56.80;;;;;;3545472;40;20038;-67
2021/06/07 06:37:50;;;;;;;2.15;2.00;;;20.50;56.30;;;;;;3544150;40;20074;-67
2021/06/07 06:40:25;;;;;;;4.13;2.53;;;20.60;55.70;;;;;;3544847;40;20046;-66
2021/06/07 06:42:53;;;;;;;4.63;2.35;;;20.70;56.20;;;;;;3546020;40;20045;-66
2021/06/07 06:45:19;;;;;;;4.82;2.45;;;20.70;56.00;;;;;;3547544;40;20034;-67
2021/06/07 06:47:45;;;;;;;3.13;2.33;;;20.90;54.60;;;;;;3538210;40;20053;-67
2021/06/07 06:50:13;;;;;;;4.72;3.03;;;20.90;53.90;;;;;;3540871;40;20022;-66
2021/06/07 06:52:39;;;;;;;3.58;2.55;;;20.90;55.20;;;;;;3548587;40;20423;-67
2021/06/07 06:55:06;;;;;;;3.72;2.97;;;20.90;54.40;;;;;;3548306;40;20042;-67
2021/06/07 06:57:32;;;;;;;3.03;2.40;;;21.00;54.70;;;;;;3546166;40;20042;-67
2021/06/07 06:59:58;;;;;;;2.60;2.40;;;21.00;54.30;;;;;;3545593;40;20045;-67
2021/06/07 07:02:23;;;;;;;2.88;2.22;;;21.20;54.10;;;;;;3543074;40;20592;-67
2021/06/07 07:04:49;;;;;;;3.25;2.70;;;21.30;54.30;;;;;;3541847;40;20278;-67
2021/06/07 07:07:15;;;;;;;8.75;2.30;;;21.40;54.30;;;;;;3543687;40;20034;-66
2021/06/07 07:09:43;;;;;;;4.15;2.28;;;21.50;53.80;;;;;;3541613;40;20086;-67
2021/06/07 07:12:12;;;;;;;6.97;2.20;;;21.60;53.20;;;;;;3544729;40;20432;-65
2021/06/07 07:14:38;;;;;;;4.07;2.40;;;21.80;52.60;;;;;;3544865;40;20045;-65
2021/06/07 07:17:04;;;;;;;2.50;2.30;;;21.80;51.10;;;;;;3546673;40;20030;-65
2021/06/07 07:19:30;;;;;;;3.90;2.20;;;21.80;51.40;;;;;;3545045;40;20038;-65
2021/06/07 07:21:56;;;;;;;6.03;2.15;;;21.90;51.60;;;;;;3548094;40;20027;-66
2021/06/07 07:24:22;;;;;;;4.18;2.35;;;22.00;50.90;;;;;;3547388;40;20034;-65
2021/06/07 07:26:48;;;;;;;8.10;2.50;;;22.00;49.50;;;;;;3555884;40;20459;-65
2021/06/07 07:29:14;;;;;;;2.92;2.22;;;22.10;48.80;;;;;;3554008;40;20046;-65
2021/06/07 07:31:40;;;;;;;6.25;2.20;;;22.10;49.80;;;;;;3546026;40;20919;-65
2021/06/07 07:34:06;;;;;;;10.10;4.18;;;22.20;49.30;;;;;;3543919;40;20420;-65
2021/06/07 07:36:31;;;;;;;4.20;2.53;;;22.20;49.20;;;;;;3545006;40;20062;-65
2021/06/07 07:38:57;;;;;;;3.30;2.40;;;22.30;50.10;;;;;;3545782;40;20792;-65
2021/06/07 07:41:25;;;;;;;5.97;2.38;;;22.30;49.70;;;;;;3548532;40;20061;-64
2021/06/07 07:43:51;;;;;;;2.75;2.30;;;22.20;49.40;;;;;;3548573;40;20019;-65
2021/06/07 07:46:16;;;;;;;7.20;2.20;;;22.30;49.70;;;;;;3546065;40;20033;-65
2021/06/07 07:48:42;;;;;;;2.45;2.25;;;22.30;49.00;;;;;;3548427;40;20043;-66
2021/06/07 07:51:08;;;;;;;6.20;2.53;;;22.30;49.70;;;;;;3547821;40;20038;-65
2021/06/07 07:53:34;;;;;;;3.70;2.35;;;22.30;49.90;;;;;;3539348;40;234924;-65
2021/06/07 07:56:00;;;;;;;6.20;2.30;;;22.40;50.20;;;;;;3539295;40;20028;-65
2021/06/07 07:58:25;;;;;;;4.90;2.58;;;22.40;49.50;;;;;;3545049;40;20078;-64
2021/06/07 08:00:52;;;;;;;8.05;2.63;;;22.50;49.40;;;;;;3547277;40;20037;-65
2021/06/07 08:03:19;;;;;;;6.65;2.25;;;22.60;48.90;;;;;;3546756;40;20035;-64
2021/06/07 08:05:45;;;;;;;4.50;2.22;;;22.70;49.50;;;;;;3548315;40;20041;-67
2021/06/07 08:08:14;;;;;;;5.75;2.60;;;22.80;48.70;;;;;;3548073;40;20026;-67
2021/06/07 08:10:39;;;;;;;3.58;2.15;;;22.80;49.10;;;;;;3545363;40;20076;-68
2021/06/07 08:13:05;;;;;;;3.50;2.38;;;22.90;49.00;;;;;;3545081;40;20412;-67
2021/06/07 08:15:34;;;;;;;5.18;2.28;;;22.90;47.30;;;;;;3544761;40;20388;-67
2021/06/07 08:18:01;;;;;;;3.78;2.75;;;22.90;48.50;;;;;;3544256;40;20086;-67
2021/06/07 08:20:27;;;;;;;3.00;1.98;;;22.90;48.60;;;;;;3547289;40;20038;-67
2021/06/07 08:22:55;;;;;;;4.20;2.50;;;23.00;48.80;;;;;;3544849;40;20030;-67
2021/06/07 08:25:23;;;;;;;4.20;2.30;;;23.10;49.40;;;;;;3544929;40;20042;-67
2021/06/07 08:27:49;;;;;;;6.40;2.20;;;23.20;48.50;;;;;;3543431;40;20042;-68
2021/06/07 08:30:16;;;;;;;3.75;2.25;;;23.30;47.80;;;;;;3545223;40;20033;-67
2021/06/07 08:32:42;;;;;;;4.03;2.28;;;23.30;47.40;;;;;;3546036;40;20420;-67
2021/06/07 08:35:10;;;;;;;5.65;2.30;;;23.40;47.70;;;;;;3545270;40;20034;-68
2021/06/07 08:37:36;;;;;;;5.00;2.40;;;23.50;47.10;;;;;;3548053;40;20038;-67
2021/06/07 08:40:08;;;;;;;2.53;2.10;;;23.60;47.00;;;;;;3547702;40;20026;-71
2021/06/07 08:42:37;;;;;;;6.03;2.80;;;23.70;47.40;;;;;;3543764;40;20030;-68
2021/06/07 08:45:06;;;;;;;5.18;2.38;;;23.70;47.20;;;;;;3544385;40;20037;-68
2021/06/07 08:47:32;;;;;;;3.63;2.50;;;23.80;46.50;;;;;;3542681;40;20312;-68
2021/06/07 08:49:59;;;;;;;3.85;2.70;;;23.80;47.30;;;;;;3543228;40;20034;-68
2021/06/07 08:52:25;;;;;;;4.47;2.25;;;23.80;46.90;;;;;;3547941;40;20034;-67
2021/06/07 08:54:50;;;;;;;2.97;1.85;;;23.90;47.10;;;;;;3541983;40;20702;-67
2021/06/07 08:57:18;;;;;;;3.08;2.30;;;24.00;46.70;;;;;;3540207;40;20420;-68
2021/06/07 08:59:44;;;;;;;4.80;2.53;;;24.10;46.40;;;;;;3540144;40;20608;-68
2021/06/07 09:02:10;;;;;;;4.38;2.35;;;24.20;46.10;;;;;;3547559;40;20038;-67
2021/06/07 09:04:51;;;;;;;6.70;2.85;;;24.20;46.00;;;;;;3545026;40;20038;-67
2021/06/07 09:07:18;;;;;;;2.65;2.45;;;24.30;45.50;;;;;;3544215;40;20304;-67
2021/06/07 09:10:08;;;;;;;4.40;2.38;;;24.20;46.00;;;;;;3546133;40;20022;-68
2021/06/07 09:12:34;;;;;;;2.22;2.03;;;24.30;45.80;;;;;;3548170;40;20143;-68
2021/06/07 09:14:59;;;;;;;3.80;2.13;;;24.30;45.30;;;;;;3551232;40;20675;-68
2021/06/07 09:17:26;;;;;;;2.58;2.10;;;24.50;46.10;;;;;;3542787;40;20053;-67
2021/06/07 09:20:19;;;;;;;5.35;2.25;;;24.60;44.80;;;;;;3545646;40;20484;-67
2021/06/07 09:23:05;;;;;;;5.85;2.45;;;24.60;45.10;;;;;;3543493;40;20462;-67
2021/06/07 09:25:35;;;;;;;3.83;2.10;;;24.60;45.10;;;;;;3550306;40;20049;-67
2021/06/07 09:28:19;;;;;;;5.35;2.95;;;24.60;44.60;;;;;;3547191;40;20092;-67
2021/06/07 09:30:58;;;;;;;9.20;3.38;;;24.70;44.50;;;;;;3549699;40;20058;-68
2021/06/07 09:33:28;;;;;;;6.00;2.45;;;24.70;45.20;;;;;;3549072;40;20054;-67
2021/06/07 09:36:18;;;;;;;6.30;2.70;;;24.70;45.60;;;;;;3538434;40;20034;-67
2021/06/07 09:39:03;;;;;;;6.47;2.80;;;24.90;44.70;;;;;;3545498;40;20030;-67
2021/06/07 09:41:48;;;;;;;6.90;2.42;;;24.90;44.30;;;;;;3543283;40;20030;-69
2021/06/07 09:44:28;;;;;;;3.65;2.42;;;25.00;44.70;;;;;;3543784;40;20046;-68
2021/06/07 09:47:16;;;;;;;2.90;2.30;;;25.10;44.20;;;;;;3544020;40;20420;-68
2021/06/07 09:49:46;;;;;;;5.75;2.17;;;25.10;44.10;;;;;;3548181;40;20040;-68
2021/06/07 09:52:16;;;;;;;4.07;2.30;;;25.00;43.60;;;;;;3553952;40;20026;-68
2021/06/07 09:54:42;;;;;;;3.55;2.20;;;25.00;43.10;;;;;;3550139;40;20046;-68
2021/06/07 09:57:07;;;;;;;3.42;2.28;;;25.00;43.70;;;;;;3555640;40;20116;-67
2021/06/07 09:59:40;;;;;;;5.60;2.33;;;25.00;44.40;;;;;;3546981;40;20377;-67
2021/06/07 10:02:20;;;;;;;4.07;2.30;;;25.10;44.40;;;;;;3546426;40;20030;-67
2021/06/07 10:04:47;;;;;;;4.78;2.40;;;25.10;43.70;;;;;;3543987;40;20054;-65
2021/06/07 10:07:13;;;;;;;2.50;2.20;;;25.20;43.00;;;;;;3552331;40;20027;-66
2021/06/07 10:09:38;;;;;;;2.30;2.05;;;25.30;43.20;;;;;;3543731;40;20026;-65
2021/06/07 10:12:23;;;;;;;2.95;2.00;;;25.50;43.30;;;;;;3550231;40;20633;-65
2021/06/07 10:14:49;;;;;;;2.55;2.10;;;25.70;41.80;;;;;;3547810;40;20042;-64
2021/06/07 10:17:15;;;;;;;8.25;2.58;;;25.80;41.80;;;;;;3544742;40;20034;-64
2021/06/07 10:22:08;;;;;;;2.60;1.95;;;25.80;40.70;;;;;;3546648;40;20104;-65
2021/06/07 10:24:34;;;;;;;3.42;1.95;;;25.80;40.00;;;;;;3544109;40;20028;-66
2021/06/07 10:27:00;;;;;;;4.40;2.05;;;25.80;41.10;;;;;;3542943;40;20041;-67
2021/06/07 10:29:34;;;;;;;2.67;2.20;;;25.90;41.20;;;;;;3542405;40;20065;-67
2021/06/07 10:32:07;;;;;;;3.45;2.85;;;25.90;40.50;;;;;;3548884;40;20078;-66
2021/06/07 10:34:54;;;;;;;3.75;2.35;;;25.90;41.10;;;;;;3542169;40;20211;-67
2021/06/07 10:37:21;;;;;;;3.97;2.20;;;25.80;40.20;;;;;;3546451;40;20392;-67
2021/06/07 10:39:47;;;;;;;4.50;1.90;;;25.80;39.50;;;;;;3545276;40;20072;-67
2021/06/07 10:42:52;;;;;;;4.68;2.53;;;25.80;39.70;;;;;;3544859;40;20030;-66
2021/06/07 10:45:23;;;;;;;3.20;2.10;;;25.90;41.00;;;;;;3547889;40;20404;-67
2021/06/07 10:47:49;;;;;;;5.72;2.50;;;25.90;40.90;;;;;;3546192;40;20479;-67
2021/06/07 10:50:21;;;;;;;4.43;1.95;;;26.10;40.70;;;;;;3544886;40;20374;-67
2021/06/07 10:52:57;;;;;;;5.00;1.90;;;26.30;39.00;;;;;;3540865;40;20137;-69
2021/06/07 10:55:39;;;;;;;2.53;2.15;;;26.70;38.30;;;;;;3544378;40;20033;-68
2021/06/07 10:58:15;;;;;;;2.00;1.77;;;26.90;37.30;;;;;;3551583;40;20143;-70
2021/06/07 11:00:48;;;;;;;3.83;2.08;;;26.90;38.80;;;;;;3544210;40;20022;-69
2021/06/07 11:03:22;;;;;;;3.10;2.15;;;26.90;38.20;;;;;;3540378;40;20049;-70
2021/06/07 11:05:56;;;;;;;2.20;2.00;;;26.70;39.10;;;;;;3540692;40;20022;-69
2021/06/07 11:08:29;;;;;;;2.22;1.90;;;26.70;38.80;;;;;;3547422;40;20488;-71
2021/06/07 11:11:04;;;;;;;2.42;2.20;;;26.50;37.80;;;;;;3554788;40;20050;-70
2021/06/07 11:13:53;;;;;;;3.77;1.90;;;26.40;38.70;;;;;;3543882;40;20188;-71
2021/06/07 11:16:28;;;;;;;2.50;2.20;;;26.40;39.70;;;;;;3544852;40;20044;-71
2021/06/07 11:19:01;;;;;;;2.70;2.00;;;26.50;39.80;;;;;;3553345;40;20081;-70
2021/06/07 11:21:28;;;;;;;5.07;2.10;;;26.60;38.60;;;;;;3544831;40;20440;-70
2021/06/07 11:23:54;;;;;;;5.20;2.25;;;26.60;38.70;;;;;;3539923;40;20714;-70
2021/06/07 11:26:33;;;;;;;4.03;2.30;;;26.60;38.30;;;;;;3544675;40;20038;-69
2021/06/07 11:29:02;;;;;;;2.22;2.00;;;26.50;39.10;;;;;;3549566;40;20037;-69
2021/06/07 11:31:34;;;;;;;2.60;2.40;;;26.60;40.40;;;;;;3545294;40;20511;-68
2021/06/07 11:34:04;;;;;;;3.25;2.17;;;26.60;39.30;;;;;;3545005;40;20065;-68
2021/06/07 11:37:00;;;;;;;3.55;2.78;;;26.60;39.10;;;;;;3546054;40;20030;-70
2021/06/07 11:39:41;;;;;;;2.30;2.10;;;26.60;39.50;;;;;;3549265;40;20026;-70
2021/06/07 11:42:07;;;;;;;3.38;2.20;;;26.60;39.40;;;;;;3541468;40;20030;-69
2021/06/07 11:44:42;;;;;;;2.53;1.90;;;26.60;38.80;;;;;;3539662;40;20495;-70
2021/06/07 11:47:09;;;;;;;4.07;2.37;;;26.60;39.40;;;;;;3542301;40;20049;-70
2021/06/07 11:49:36;;;;;;;2.28;2.08;;;26.60;40.10;;;;;;3547903;40;20100;-70
2021/06/07 11:52:08;;;;;;;2.30;2.10;;;26.60;39.10;;;;;;3553170;40;20044;-69
2021/06/07 11:54:37;;;;;;;3.13;2.30;;;26.70;39.50;;;;;;3551710;40;20499;-68
2021/06/07 11:57:05;;;;;;;5.00;2.22;;;26.80;39.20;;;;;;3542659;40;20042;-70
2021/06/07 11:59:33;;;;;;;6.30;2.25;;;26.80;39.60;;;;;;3548671;40;20030;-71
2021/06/07 12:01:59;;;;;;;5.05;2.33;;;26.90;40.70;;;;;;3542149;40;20079;-70
2021/06/07 12:04:32;;;;;;;2.97;1.90;;;26.90;40.80;;;;;;3541119;40;20037;-71
2021/06/07 12:07:10;;;;;;;4.65;2.25;;;26.80;39.50;;;;;;3546256;40;20034;-70
2021/06/07 12:09:41;;;;;;;3.55;2.22;;;26.90;39.80;;;;;;3545176;40;20390;-70
2021/06/07 12:12:08;;;;;;;5.57;2.50;;;27.00;39.40;;;;;;3544298;40;20058;-71
2021/06/07 12:14:39;;;;;;;2.47;2.17;;;27.00;38.30;;;;;;3546114;40;20046;-70
2021/06/07 12:17:06;;;;;;;3.95;2.40;;;27.00;39.50;;;;;;3548354;40;20371;-69
2021/06/07 12:19:33;;;;;;;2.92;2.33;;;27.00;39.80;;;;;;3549216;40;20703;-69
2021/06/07 12:22:00;;;;;;;2.90;2.42;;;27.10;39.80;;;;;;3556887;40;20026;-70
2021/06/07 12:24:27;;;;;;;3.00;2.15;;;27.20;39.50;;;;;;3548622;40;20081;-70
2021/06/07 12:29:37;;;;;;;5.88;2.10;;;27.20;40.00;;;;;;3544887;40;20123;-70
2021/06/07 12:32:20;;;;;;;2.63;2.15;;;27.30;39.10;;;;;;3546247;40;20037;-69
2021/06/07 12:35:12;;;;;;;2.58;2.10;;;27.30;37.10;;;;;;3546544;40;20081;-69
2021/06/07 12:37:45;;;;;;;3.58;2.30;;;27.30;38.10;;;;;;3549134;40;20034;-70
2021/06/07 12:40:21;;;;;;;3.67;2.05;;;27.40;38.30;;;;;;3538491;40;20022;-69
2021/06/07 12:42:49;;;;;;;;;;;27.40;38.70;;;;;;3541963;40;20038;-69
2021/06/07 12:45:18;;;;;;;3.05;1.90;;;27.40;39.00;;;;;;3542137;40;19937;-69
2021/06/07 12:47:44;;;;;;;4.95;2.30;;;27.60;38.60;;;;;;3543509;40;20042;-69
2021/06/07 12:50:24;;;;;;;3.50;2.30;;;27.50;37.90;;;;;;3552562;40;20120;-70
2021/06/07 12:52:56;;;;;;;3.35;2.35;;;27.40;39.30;;;;;;3549238;40;20064;-70
2021/06/07 12:55:24;;;;;;;3.63;2.00;;;27.30;38.80;;;;;;3541477;40;20026;-71
2021/06/07 12:57:52;;;;;;;4.10;2.45;;;27.30;39.30;;;;;;3540642;40;20047;-70